createdAt,value
2023-03-29T00:01:11.492Z,68.65
2023-03-29T00:04:03.466Z,69.72
2023-03-29T00:06:36.444Z,70.10
2023-03-29T00:09:10.437Z,70.08
2023-03-29T00:11:42.471Z,70.12
2023-03-29T00:14:16.981Z,69.94
2023-03-29T00:16:50.709Z,69.81
2023-03-29T00:19:22.336Z,70.01
2023-03-29T00:21:54.532Z,69.92
2023-03-29T00:24:26.100Z,70.29
2023-03-29T00:26:57.892Z,70.39
2023-03-29T00:29:32.781Z,70.28
2023-03-29T00:32:04.624Z,70.07
2023-03-29T00:34:36.593Z,70.24
2023-03-29T00:37:09.453Z,70.20
2023-03-29T00:39:42.572Z,70.01
2023-03-29T00:42:17.020Z,70.28
2023-03-29T00:45:09.446Z,70.30
2023-03-29T00:47:46.271Z,70.02
2023-03-29T00:50:22.757Z,69.90
2023-03-29T00:53:00.252Z,69.77
2023-03-29T00:55:35.703Z,69.86
2023-03-29T00:58:13.272Z,69.51
2023-03-29T01:01:07.745Z,69.47
2023-03-29T01:03:46.764Z,69.67
2023-03-29T01:06:47.439Z,69.99
2023-03-29T01:09:22.845Z,69.84
2023-03-29T01:11:58.795Z,69.63
2023-03-29T01:14:37.004Z,69.98
2023-03-29T01:17:13.189Z,70.10
2023-03-29T01:19:51.258Z,69.64
2023-03-29T01:22:34.420Z,69.88
2023-03-29T01:25:16.262Z,69.51
2023-03-29T01:28:02.920Z,69.64
2023-03-29T01:30:40.686Z,69.55
2023-03-29T01:33:21.566Z,69.88
2023-03-29T01:36:00.400Z,69.95
2023-03-29T01:38:38.527Z,69.48
2023-03-29T01:41:10.516Z,70.22
2023-03-29T01:43:48.953Z,70.56
2023-03-29T01:46:29.807Z,70.40
2023-03-29T01:49:05.537Z,70.13
2023-03-29T01:51:42.716Z,69.85
2023-03-29T01:54:20.118Z,69.94
2023-03-29T01:56:53.993Z,70.11
2023-03-29T01:59:34.558Z,70.30
2023-03-29T02:02:08.583Z,69.93
2023-03-29T02:04:45.096Z,69.67
2023-03-29T02:07:19.772Z,69.65
2023-03-29T02:09:54.026Z,69.90
2023-03-29T02:12:26.224Z,69.71
2023-03-29T02:15:01.184Z,69.62
2023-03-29T02:17:34.159Z,69.79
2023-03-29T02:20:14.873Z,69.81
2023-03-29T02:22:53.200Z,68.66
2023-03-29T02:25:26.288Z,69.00
2023-03-29T02:27:58.972Z,69.27
2023-03-29T02:30:38.395Z,69.12
2023-03-29T02:33:14.714Z,68.51
2023-03-29T02:35:53.597Z,69.02
2023-03-29T02:38:28.722Z,68.57
2023-03-29T02:41:03.394Z,68.74
2023-03-29T02:43:36.493Z,69.08
2023-03-29T02:46:11.501Z,68.67
2023-03-29T02:48:44.529Z,69.15
2023-03-29T02:51:21.475Z,69.30
2023-03-29T02:54:00.481Z,69.07
2023-03-29T02:56:32.077Z,69.27
2023-03-29T02:59:04.168Z,69.45
2023-03-29T03:01:38.956Z,69.55
2023-03-29T03:04:10.908Z,69.57
2023-03-29T03:06:42.808Z,69.59
2023-03-29T03:09:14.972Z,69.35
2023-03-29T03:11:46.590Z,69.36
2023-03-29T03:14:19.407Z,69.41
2023-03-29T03:16:53.680Z,69.54
2023-03-29T03:19:25.639Z,69.46
2023-03-29T03:21:57.254Z,69.44
2023-03-29T03:24:29.711Z,69.76
2023-03-29T03:27:01.293Z,69.70
2023-03-29T03:29:33.236Z,70.07
2023-03-29T03:32:08.461Z,70.17
2023-03-29T03:34:40.263Z,70.31
2023-03-29T03:37:12.534Z,70.04
2023-03-29T03:39:44.382Z,69.76
2023-03-29T03:42:16.582Z,69.82
2023-03-29T03:44:48.776Z,69.24
2023-03-29T03:47:23.093Z,69.46
2023-03-29T03:49:54.941Z,69.44
2023-03-29T03:52:26.630Z,69.56
2023-03-29T03:54:58.527Z,69.19
2023-03-29T03:57:30.103Z,69.52
2023-03-29T04:00:02.269Z,69.22
2023-03-29T04:02:36.555Z,69.21
2023-03-29T04:05:17.450Z,69.14
2023-03-29T04:07:49.273Z,69.32
2023-03-29T04:10:21.281Z,69.82
2023-03-29T04:12:52.771Z,69.83
2023-03-29T04:15:24.783Z,69.62
2023-03-29T04:17:59.646Z,68.93
2023-03-29T04:20:31.623Z,69.20
2023-03-29T04:23:03.217Z,69.25
2023-03-29T04:25:35.095Z,68.87
2023-03-29T04:28:06.834Z,68.89
2023-03-29T04:30:39.025Z,68.99
2023-03-29T04:33:13.446Z,68.95
2023-03-29T04:35:45.587Z,69.70
2023-03-29T04:38:17.323Z,70.03
2023-03-29T04:40:49.350Z,70.33
2023-03-29T04:43:21.008Z,70.73
2023-03-29T04:45:53.276Z,70.49
2023-03-29T04:48:30.658Z,70.80
2023-03-29T04:51:02.891Z,71.20
2023-03-29T04:53:34.659Z,71.06
2023-03-29T04:56:06.988Z,70.99
2023-03-29T04:58:38.568Z,71.15
2023-03-29T05:01:10.609Z,70.58
2023-03-29T05:03:45.305Z,70.49
2023-03-29T05:06:17.321Z,70.59
2023-03-29T05:08:48.937Z,70.25
2023-03-29T05:11:32.377Z,70.69
2023-03-29T05:14:07.677Z,70.27
2023-03-29T05:16:39.858Z,70.94
2023-03-29T05:19:14.615Z,70.99
2023-03-29T05:21:46.598Z,70.34
2023-03-29T05:24:18.436Z,69.82
2023-03-29T05:26:52.202Z,69.65
2023-03-29T05:29:24.464Z,69.91
2023-03-29T05:31:56.642Z,69.66
2023-03-29T05:34:31.837Z,68.94
2023-03-29T05:37:04.155Z,68.88
2023-03-29T05:39:37.999Z,68.76
2023-03-29T05:42:12.637Z,69.24
2023-03-29T05:44:44.916Z,69.28
2023-03-29T05:47:17.595Z,69.20
2023-03-29T05:49:53.421Z,68.75
2023-03-29T05:52:26.055Z,68.71
2023-03-29T05:54:57.768Z,68.35
2023-03-29T05:57:29.879Z,66.86
2023-03-29T06:00:02.411Z,66.11
2023-03-29T06:02:35.410Z,65.50
2023-03-29T06:05:10.406Z,65.12
2023-03-29T06:07:46.465Z,65.07
2023-03-29T06:10:20.629Z,65.02
2023-03-29T06:12:52.848Z,64.54
2023-03-29T06:15:25.452Z,65.86
2023-03-29T06:17:57.608Z,63.75
2023-03-29T06:20:32.268Z,63.45
2023-03-29T06:23:04.273Z,62.54
2023-03-29T06:25:36.025Z,62.21
2023-03-29T06:28:08.345Z,62.59
2023-03-29T06:30:40.111Z,61.21
2023-03-29T06:33:12.262Z,60.66
2023-03-29T06:35:50.128Z,60.29
2023-03-29T06:38:23.009Z,60.68
2023-03-29T06:40:54.732Z,60.91
2023-03-29T06:43:26.751Z,60.59
2023-03-29T06:45:58.700Z,61.05
2023-03-29T06:48:31.042Z,60.90
2023-03-29T06:51:05.398Z,60.18
2023-03-29T06:53:44.522Z,59.85
2023-03-29T06:56:16.461Z,59.88
2023-03-29T06:58:48.964Z,59.25
2023-03-29T07:01:21.110Z,59.60
2023-03-29T07:03:53.353Z,58.79
2023-03-29T07:06:28.180Z,57.79
2023-03-29T07:09:01.910Z,58.77
2023-03-29T07:11:34.399Z,58.13
2023-03-29T07:14:06.419Z,57.66
2023-03-29T07:16:39.469Z,56.77
2023-03-29T07:19:12.156Z,56.39
2023-03-29T07:21:46.846Z,55.89
2023-03-29T07:24:20.276Z,55.86
2023-03-29T07:27:12.237Z,55.67
2023-03-29T07:29:44.712Z,54.81
2023-03-29T07:32:17.218Z,54.78
2023-03-29T07:34:49.766Z,54.97
2023-03-29T07:37:25.163Z,56.00
2023-03-29T07:39:57.593Z,54.88
2023-03-29T07:42:29.712Z,55.95
2023-03-29T07:45:02.316Z,54.91
2023-03-29T07:47:35.515Z,54.05
2023-03-29T07:50:08.997Z,53.52
2023-03-29T07:52:44.948Z,52.75
2023-03-29T07:55:18.108Z,52.36
2023-03-29T07:57:52.146Z,53.82
2023-03-29T08:00:25.686Z,52.27
2023-03-29T08:02:58.192Z,51.54
2023-03-29T08:05:40.678Z,52.89
2023-03-29T08:08:17.664Z,52.33
2023-03-29T08:10:50.399Z,53.64
2023-03-29T08:13:22.831Z,53.39
2023-03-29T08:15:55.990Z,53.75
2023-03-29T08:18:28.596Z,53.67
2023-03-29T08:21:02.028Z,52.38
2023-03-29T08:23:37.453Z,51.31
2023-03-29T08:26:11.836Z,50.71
2023-03-29T08:28:44.289Z,51.29
2023-03-29T08:31:17.390Z,50.39
2023-03-29T08:33:49.888Z,51.90
2023-03-29T08:36:22.967Z,49.60
2023-03-29T08:38:58.337Z,50.97
2023-03-29T08:41:42.102Z,47.72
2023-03-29T08:44:28.328Z,47.03
2023-03-29T08:47:10.728Z,45.67
2023-03-29T08:49:47.166Z,43.87
2023-03-29T08:52:26.854Z,43.46
2023-03-29T08:55:04.248Z,42.52
2023-03-29T08:57:43.043Z,42.49
2023-03-29T09:00:25.005Z,43.85
2023-03-29T09:02:59.494Z,44.38
2023-03-29T09:05:37.606Z,43.99
2023-03-29T09:08:16.852Z,44.53
2023-03-29T09:11:04.854Z,42.61
2023-03-29T09:13:47.880Z,41.65
2023-03-29T09:16:31.724Z,42.98
2023-03-29T09:19:17.726Z,44.68
2023-03-29T09:21:58.076Z,45.17
2023-03-29T09:24:43.156Z,43.07
2023-03-29T09:27:24.276Z,43.89
2023-03-29T09:30:08.320Z,45.58
2023-03-29T09:32:47.581Z,42.97
2023-03-29T09:35:26.568Z,43.11
2023-03-29T09:37:59.046Z,44.94
2023-03-29T09:40:37.641Z,44.90
2023-03-29T09:43:18.119Z,42.29
2023-03-29T09:45:57.316Z,44.51
2023-03-29T09:48:33.242Z,42.54
2023-03-29T09:51:08.291Z,41.75
2023-03-29T09:53:40.808Z,42.36
2023-03-29T09:56:16.249Z,40.20
2023-03-29T09:58:51.804Z,40.78
2023-03-29T10:01:26.530Z,44.82
2023-03-29T10:04:05.190Z,39.91
2023-03-29T10:06:39.290Z,38.27
2023-03-29T10:09:19.326Z,38.28
2023-03-29T10:11:57.062Z,41.56
2023-03-29T10:14:38.676Z,41.90
2023-03-29T10:17:19.343Z,39.24
2023-03-29T10:19:53.633Z,38.88
2023-03-29T10:22:29.167Z,37.67
2023-03-29T10:25:01.625Z,36.91
2023-03-29T10:27:37.048Z,38.11
2023-03-29T10:30:22.209Z,35.83
2023-03-29T10:33:00.230Z,39.03
2023-03-29T10:35:36.245Z,38.76
2023-03-29T10:38:13.796Z,38.96
2023-03-29T10:40:48.668Z,40.50
2023-03-29T10:43:26.383Z,41.07
2023-03-29T10:46:11.252Z,40.47
2023-03-29T10:48:49.526Z,43.06
2023-03-29T10:51:22.898Z,43.10
2023-03-29T10:53:55.407Z,46.02
2023-03-29T10:56:38.007Z,46.29
2023-03-29T10:59:35.111Z,46.08
2023-03-29T11:02:40.092Z,46.12
2023-03-29T11:05:25.952Z,44.34
2023-03-29T11:08:15.476Z,44.06
2023-03-29T11:10:59.040Z,46.42
2023-03-29T11:13:40.753Z,47.04
2023-03-29T11:16:24.360Z,46.31
2023-03-29T11:19:24.161Z,49.08
2023-03-29T11:22:20.002Z,45.22
2023-03-29T11:25:29.792Z,44.49
2023-03-29T11:28:11.311Z,45.50
2023-03-29T11:30:59.011Z,46.29
2023-03-29T11:33:53.028Z,46.52
2023-03-29T11:36:46.600Z,46.35
2023-03-29T11:39:30.836Z,46.13
2023-03-29T11:42:12.706Z,47.96
2023-03-29T11:45:02.613Z,49.79
2023-03-29T11:47:47.857Z,51.41
2023-03-29T11:50:37.873Z,51.81
2023-03-29T11:53:29.186Z,49.49
2023-03-29T11:56:29.628Z,49.87
2023-03-29T11:59:16.084Z,48.61
2023-03-29T12:02:05.876Z,46.33
2023-03-29T12:04:54.983Z,46.98
2023-03-29T12:07:40.405Z,46.50
2023-03-29T12:10:29.720Z,48.41
2023-03-29T12:13:18.483Z,47.81
2023-03-29T12:16:03.648Z,47.89
2023-03-29T12:18:46.117Z,47.68
2023-03-29T12:21:30.932Z,46.77
2023-03-29T12:24:23.933Z,47.52
2023-03-29T12:27:28.780Z,47.55
2023-03-29T12:30:24.560Z,46.01
2023-03-29T12:33:27.952Z,47.94
2023-03-29T12:36:24.992Z,48.38
2023-03-29T12:39:03.811Z,46.10
2023-03-29T12:41:50.133Z,44.99
2023-03-29T12:44:28.985Z,45.14
2023-03-29T12:47:08.476Z,47.16
2023-03-29T12:49:50.114Z,45.52
2023-03-29T12:52:31.345Z,45.37
2023-03-29T12:55:11.487Z,45.04
2023-03-29T12:58:12.922Z,46.93
2023-03-29T13:01:02.325Z,45.46
2023-03-29T13:03:52.562Z,46.48
2023-03-29T13:06:54.284Z,45.75
2023-03-29T13:09:45.869Z,45.56
2023-03-29T13:12:33.480Z,45.99
2023-03-29T13:15:10.844Z,46.61
2023-03-29T13:18:01.460Z,46.30
2023-03-29T13:20:53.869Z,45.46
2023-03-29T13:23:40.212Z,45.66
2023-03-29T13:26:34.869Z,45.01
2023-03-29T13:29:23.585Z,46.42
2023-03-29T13:32:07.979Z,46.97
2023-03-29T13:34:52.128Z,46.29
2023-03-29T13:37:39.833Z,47.51
2023-03-29T13:40:32.474Z,49.33
2023-03-29T13:43:20.225Z,49.75
2023-03-29T13:46:19.187Z,49.04
2023-03-29T13:49:01.993Z,49.43
2023-03-29T13:51:56.283Z,50.06
2023-03-29T13:54:37.657Z,49.42
2023-03-29T13:57:18.962Z,48.98
2023-03-29T14:00:24.469Z,47.53
2023-03-29T14:03:10.632Z,47.53
2023-03-29T14:05:45.688Z,48.84
2023-03-29T14:08:28.573Z,48.30
2023-03-29T14:11:04.870Z,50.44
2023-03-29T14:13:38.805Z,49.81
2023-03-29T14:16:18.531Z,49.12
2023-03-29T14:18:52.717Z,49.22
2023-03-29T14:21:27.004Z,50.68
2023-03-29T14:24:04.215Z,50.65
2023-03-29T14:26:53.314Z,49.91
2023-03-29T14:29:26.926Z,51.10
2023-03-29T14:32:11.372Z,52.09
2023-03-29T14:34:45.877Z,50.26
2023-03-29T14:37:27.305Z,50.92
2023-03-29T14:40:26.503Z,52.65
2023-03-29T14:43:10.475Z,51.55
2023-03-29T14:45:47.449Z,51.98
2023-03-29T14:48:28.067Z,53.21
2023-03-29T14:50:59.707Z,52.83
2023-03-29T14:53:38.194Z,53.09
2023-03-29T14:56:19.180Z,52.89
2023-03-29T14:58:52.773Z,56.04
2023-03-29T15:01:29.954Z,53.50
2023-03-29T15:04:11.639Z,53.27
2023-03-29T15:06:47.483Z,54.54
2023-03-29T15:09:27.666Z,53.58
2023-03-29T15:12:09.091Z,55.10
2023-03-29T15:14:49.021Z,55.15
2023-03-29T15:17:47.532Z,55.87
2023-03-29T15:20:28.372Z,56.37
2023-03-29T15:23:05.604Z,56.21
2023-03-29T15:25:42.103Z,57.32
2023-03-29T15:28:31.734Z,58.65
2023-03-29T15:31:36.203Z,58.84
2023-03-29T15:34:40.453Z,57.38
2023-03-29T15:37:21.221Z,56.90
2023-03-29T15:39:56.711Z,56.66
2023-03-29T15:42:29.935Z,57.52
2023-03-29T15:45:08.752Z,57.91
2023-03-29T15:47:43.036Z,56.69
2023-03-29T15:50:18.181Z,57.72
2023-03-29T15:53:05.384Z,57.52
2023-03-29T15:55:58.135Z,59.05
2023-03-29T15:58:39.817Z,57.72
2023-03-29T16:01:34.902Z,56.77
2023-03-29T16:04:37.207Z,57.44
2023-03-29T16:07:18.859Z,57.43
2023-03-29T16:09:52.925Z,57.26
2023-03-29T16:12:26.427Z,56.96
2023-03-29T16:15:12.926Z,56.35
2023-03-29T16:18:11.317Z,57.85
2023-03-29T16:20:50.336Z,56.69
2023-03-29T16:23:28.166Z,58.19
2023-03-29T16:26:08.441Z,57.70
2023-03-29T16:28:48.292Z,57.27
2023-03-29T16:31:23.931Z,57.71
2023-03-29T16:34:04.125Z,58.20
2023-03-29T16:36:39.950Z,57.59
2023-03-29T16:39:14.641Z,57.59
2023-03-29T16:41:54.135Z,57.84
2023-03-29T16:44:31.880Z,58.53
2023-03-29T16:47:05.406Z,58.96
2023-03-29T16:49:43.721Z,59.03
2023-03-29T16:52:21.666Z,59.10
2023-03-29T16:54:57.408Z,59.63
2023-03-29T16:57:30.580Z,59.04
2023-03-29T17:00:05.881Z,59.52
2023-03-29T17:02:40.499Z,59.12
2023-03-29T17:05:41.640Z,59.56
2023-03-29T17:08:17.248Z,59.39
2023-03-29T17:10:59.525Z,59.22
2023-03-29T17:13:36.309Z,60.00
2023-03-29T17:16:12.168Z,60.39
2023-03-29T17:18:49.738Z,60.32
2023-03-29T17:21:26.856Z,60.85
2023-03-29T17:24:01.075Z,61.14
2023-03-29T17:26:46.997Z,61.87
2023-03-29T17:29:23.368Z,61.92
2023-03-29T17:32:02.429Z,61.60
2023-03-29T17:34:38.645Z,62.46
2023-03-29T17:37:13.687Z,62.60
2023-03-29T17:39:53.605Z,61.92
2023-03-29T17:42:41.762Z,63.69
2023-03-29T17:45:24.209Z,63.26
2023-03-29T17:47:57.794Z,63.18
2023-03-29T17:50:32.960Z,63.55
2023-03-29T17:53:10.848Z,63.97
2023-03-29T17:55:47.636Z,64.01
2023-03-29T17:58:21.031Z,63.67
2023-03-29T18:01:05.416Z,64.52
2023-03-29T18:04:00.733Z,65.17
2023-03-29T18:06:47.138Z,65.72
2023-03-29T18:09:56.135Z,66.11
2023-03-29T18:12:43.872Z,64.50
2023-03-29T18:15:28.817Z,63.96
2023-03-29T18:18:06.127Z,64.18
2023-03-29T18:20:42.818Z,64.21
2023-03-29T18:23:29.994Z,64.12
2023-03-29T18:26:43.343Z,64.15
2023-03-29T18:30:16.205Z,64.77
2023-03-29T18:33:42.295Z,64.27
2023-03-29T18:36:24.263Z,63.81
2023-03-29T18:39:06.306Z,63.62
2023-03-29T18:41:43.583Z,63.70
2023-03-29T18:44:15.977Z,62.72
2023-03-29T18:46:49.287Z,63.10
2023-03-29T18:49:28.485Z,63.42
2023-03-29T18:52:06.961Z,64.04
2023-03-29T18:54:40.414Z,64.21
2023-03-29T18:57:30.553Z,64.25
2023-03-29T19:00:13.860Z,64.60
2023-03-29T19:02:47.749Z,65.31
2023-03-29T19:05:25.473Z,65.08
2023-03-29T19:08:04.327Z,65.49
2023-03-29T19:10:42.036Z,65.60
2023-03-29T19:13:18.445Z,66.14
2023-03-29T19:15:51.486Z,66.16
2023-03-29T19:18:27.277Z,66.02
2023-03-29T19:21:00.298Z,65.92
2023-03-29T19:23:35.951Z,66.22
2023-03-29T19:26:13.393Z,66.60
2023-03-29T19:28:49.207Z,66.56
2023-03-29T19:31:38.420Z,66.58
2023-03-29T19:34:11.471Z,67.17
2023-03-29T19:36:43.805Z,67.09
2023-03-29T19:39:15.672Z,66.90
2023-03-29T19:41:47.832Z,66.96
2023-03-29T19:44:23.930Z,66.78
2023-03-29T19:46:56.030Z,67.05
2023-03-29T19:49:27.848Z,67.53
2023-03-29T19:52:15.826Z,67.53
2023-03-29T19:54:47.914Z,67.43
2023-03-29T19:57:20.887Z,67.56
2023-03-29T19:59:56.337Z,67.76
2023-03-29T20:02:28.894Z,68.42
2023-03-29T20:05:02.104Z,67.65
2023-03-29T20:07:38.067Z,67.23
2023-03-29T20:10:11.764Z,67.83
2023-03-29T20:12:44.737Z,67.95
2023-03-29T20:15:20.037Z,67.84
2023-03-29T20:17:59.892Z,67.77
2023-03-29T20:20:36.859Z,68.09
2023-03-29T20:23:13.511Z,68.28
2023-03-29T20:25:56.053Z,68.23
2023-03-29T20:28:33.142Z,67.87
2023-03-29T20:31:16.136Z,68.10
2023-03-29T20:33:51.309Z,67.88
2023-03-29T20:36:25.294Z,68.54
2023-03-29T20:38:59.832Z,68.19
2023-03-29T20:41:32.780Z,68.56
2023-03-29T20:44:05.174Z,68.51
2023-03-29T20:46:47.160Z,68.52
2023-03-29T20:49:19.008Z,68.34
2023-03-29T20:51:58.770Z,68.27
2023-03-29T20:54:34.456Z,68.33
2023-03-29T20:57:07.158Z,68.48
2023-03-29T20:59:39.542Z,68.78
2023-03-29T21:02:18.307Z,68.82
2023-03-29T21:05:00.685Z,69.07
2023-03-29T21:07:35.825Z,68.97
2023-03-29T21:10:08.231Z,69.24
2023-03-29T21:12:40.976Z,69.27
2023-03-29T21:15:18.888Z,70.18
2023-03-29T21:17:55.096Z,69.89
2023-03-29T21:20:33.753Z,70.04
2023-03-29T21:23:09.795Z,69.77
2023-03-29T21:25:47.595Z,70.14
2023-03-29T21:28:19.475Z,70.54
2023-03-29T21:30:52.461Z,70.95
2023-03-29T21:33:30.404Z,70.87
2023-03-29T21:36:06.121Z,71.06
2023-03-29T21:38:46.129Z,70.83
2023-03-29T21:41:19.989Z,71.46
2023-03-29T21:43:53.609Z,71.51
2023-03-29T21:46:26.794Z,71.86
2023-03-29T21:49:02.097Z,71.79
2023-03-29T21:51:37.656Z,71.41
2023-03-29T21:54:10.430Z,71.12
2023-03-29T21:56:46.582Z,71.60
2023-03-29T21:59:20.493Z,71.97
2023-03-29T22:01:58.484Z,72.28
2023-03-29T22:04:37.260Z,71.61
2023-03-29T22:07:13.626Z,71.75
2023-03-29T22:09:49.726Z,72.08
2023-03-29T22:12:28.149Z,71.87
2023-03-29T22:15:02.988Z,71.88
2023-03-29T22:17:37.402Z,72.01
2023-03-29T22:20:16.220Z,71.87
2023-03-29T22:22:59.755Z,72.42
2023-03-29T22:25:47.968Z,72.95
2023-03-29T22:28:21.358Z,72.99
2023-03-29T22:30:53.376Z,72.78
2023-03-29T22:33:25.838Z,73.30
2023-03-29T22:36:00.366Z,73.30
2023-03-29T22:38:33.256Z,73.56
2023-03-29T22:41:05.843Z,73.57
2023-03-29T22:43:39.705Z,73.56
2023-03-29T22:46:13.407Z,74.01
2023-03-29T22:50:34.228Z,74.15
2023-03-29T22:52:50.732Z,73.88
2023-03-29T22:55:22.353Z,74.22
2023-03-29T22:57:54.294Z,74.30
2023-03-29T23:00:26.151Z,74.73
2023-03-29T23:02:58.522Z,74.69
2023-03-29T23:05:30.574Z,75.13
2023-03-29T23:08:07.655Z,75.37
2023-03-29T23:10:41.752Z,75.43
2023-03-29T23:13:18.059Z,75.58
2023-03-29T23:16:25.370Z,75.66
2023-03-29T23:19:28.634Z,75.82
2023-03-29T23:22:01.780Z,75.69
2023-03-29T23:24:36.557Z,76.02
2023-03-29T23:27:08.171Z,76.24
2023-03-29T23:29:41.138Z,76.04
2023-03-29T23:32:12.669Z,76.21
2023-03-29T23:34:44.927Z,76.21
2023-03-29T23:37:16.546Z,76.34
2023-03-29T23:39:51.267Z,76.47
2023-03-29T23:42:23.110Z,77.15
2023-03-29T23:44:55.072Z,76.79
2023-03-29T23:47:26.906Z,76.12
2023-03-29T23:50:02.418Z,75.86
2023-03-29T23:52:35.994Z,76.27
2023-03-29T23:55:12.198Z,75.85
2023-03-29T23:57:43.807Z,76.40
